Time;durP1;ratioP1;P1;durP2;ratioP2;P2;SDS_P1;SDS_P2;PMS_P1;PMS_P2;Temp;Humidity;BMP_temperature;BMP_pressure;BME280_temperature;BME280_humidity;BME280_pressure;Samples;Min_cycle;Max_cycle;Signal;HPM_P1;HPM_P2
2021/04/15 00:43:10;;;;;;;5.03;3.85;;;4.70;90.10;;;;;;5904730;24;20162;-94
2021/04/15 01:41:29;;;;;;;;;;;;;;;;;;;;;
2021/04/15 02:28:54;;;;;;;;;;;;;;;;;;;;;
2021/04/15 02:32:28;;;;;;;6.63;4.32;;;4.20;91.30;;;;;;6023792;23;20042;-93
2021/04/15 02:35:48;;;;;;;;;;;;;;;;;;;;;
2021/04/15 02:42:17;;;;;;;4.43;4.03;;;4.10;91.40;;;;;;6037522;23;20393;-93
2021/04/15 02:48:14;;;;;;;7.53;4.45;;;3.90;91.60;;;;;;6142652;23;20012;-94
2021/04/15 02:50:57;;;;;;;6.78;4.43;;;3.90;91.60;;;;;;6132735;23;20010;-93
2021/04/15 02:54:46;;;;;;;6.50;4.22;;;3.90;91.60;;;;;;6140185;23;20032;-91
2021/04/15 03:01:00;;;;;;;5.53;4.43;;;3.90;91.50;;;;;;6007433;23;20012;-94
2021/04/15 03:04:01;;;;;;;6.95;4.40;;;3.90;91.50;;;;;;5992911;23;20012;-93
2021/04/15 03:07:07;;;;;;;5.57;4.22;;;3.80;91.50;;;;;;5993035;23;20023;-93
2021/04/15 03:09:45;;;;;;;6.03;3.97;;;3.80;91.50;;;;;;6005835;23;20019;-92
2021/04/15 03:12:29;;;;;;;6.05;4.00;;;3.70;91.60;;;;;;6137631;23;20009;-93
2021/04/15 03:15:25;;;;;;;;;;;;;;;;;;;;;
2021/04/15 03:18:24;;;;;;;14.00;4.72;;;3.70;91.70;;;;;;6163280;23;20025;-93
2021/04/15 03:21:35;;;;;;;4.63;3.85;;;3.70;91.60;;;;;;6115053;23;20009;-93
2021/04/15 03:24:23;;;;;;;6.85;4.68;;;3.60;91.60;;;;;;6029880;23;20344;-93
2021/04/15 03:30:33;;;;;;;10.80;4.88;;;3.50;91.70;;;;;;6162357;23;20040;-93
2021/04/15 03:33:20;;;;;;;8.32;4.57;;;3.50;91.80;;;;;;6137939;23;20136;-93
2021/04/15 03:36:29;;;;;;;7.28;4.95;;;3.50;92.00;;;;;;6136416;23;20341;-93
2021/04/15 03:39:18;;;;;;;;;;;;;;;;;;;;;
2021/04/15 03:42:17;;;;;;;10.43;4.53;;;3.40;92.10;;;;;;6162748;23;20031;-93
2021/04/15 03:45:36;;;;;;;5.63;4.38;;;3.40;92.10;;;;;;6137632;23;20036;-92
2021/04/15 03:48:19;;;;;;;7.03;5.10;;;3.40;92.10;;;;;;6137752;23;20005;-93
2021/04/15 03:50:54;;;;;;;;;;;3.40;92.10;;;;;;6136366;23;20301;-93
2021/04/15 03:54:03;;;;;;;6.45;3.72;;;3.30;92.10;;;;;;6136741;23;19979;-92
2021/04/15 03:57:11;;;;;;;5.20;4.40;;;3.30;92.10;;;;;;6137964;23;20238;-92
2021/04/15 04:00:11;;;;;;;7.22;4.28;;;3.30;92.20;;;;;;6136216;23;20092;-93
2021/04/15 04:03:14;;;;;;;6.97;4.65;;;3.30;92.20;;;;;;6137262;23;20006;-92
2021/04/15 04:06:15;;;;;;;;;;;3.20;92.20;;;;;;6133774;23;20088;-93
2021/04/15 04:09:33;;;;;;;5.40;3.88;;;3.20;92.20;;;;;;6136655;23;20139;-92
2021/04/15 04:12:46;;;;;;;6.70;3.65;;;3.20;92.30;;;;;;6020009;23;20007;-93
2021/04/15 04:15:34;;;;;;;6.63;5.03;;;3.10;92.40;;;;;;6076852;23;20295;-93
2021/04/15 04:18:06;;;;;;;6.13;4.07;;;3.20;92.30;;;;;;6077811;23;20014;-93
2021/04/15 04:20:40;;;;;;;13.98;4.13;;;3.10;92.40;;;;;;6077301;23;20002;-93
2021/04/15 04:23:30;;;;;;;5.38;3.97;;;3.10;92.40;;;;;;6077870;23;20010;-93
2021/04/15 04:26:28;;;;;;;7.15;3.78;;;3.20;92.30;;;;;;6114146;23;20006;-93
2021/04/15 04:29:15;;;;;;;6.65;4.28;;;3.20;92.20;;;;;;6136833;23;20088;-93
2021/04/15 04:34:54;;;;;;;9.00;4.38;;;3.20;92.20;;;;;;6140845;23;20006;-92
2021/04/15 04:37:55;;;;;;;8.27;4.50;;;3.20;92.30;;;;;;6136767;23;20325;-92
2021/04/15 04:40:38;;;;;;;7.10;3.92;;;3.20;92.30;;;;;;6137029;23;20001;-93
2021/04/15 04:43:19;;;;;;;;;;;3.20;92.30;;;;;;6136356;23;20013;-93
2021/04/15 04:45:45;;;;;;;8.63;4.10;;;3.20;92.30;;;;;;6135939;23;20233;-93
2021/04/15 04:48:30;;;;;;;7.93;4.50;;;3.20;92.40;;;;;;6136113;23;20041;-92
2021/04/15 04:51:09;;;;;;;5.25;3.53;;;3.20;92.40;;;;;;6135408;23;20052;-93
2021/04/15 04:53:43;;;;;;;7.25;4.20;;;3.20;92.60;;;;;;6137502;23;20012;-93
2021/04/15 04:56:25;;;;;;;5.90;3.88;;;3.30;92.30;;;;;;6135613;23;20009;-91
2021/04/15 04:58:57;;;;;;;6.32;3.67;;;3.30;92.30;;;;;;6135859;23;20002;-94
2021/04/15 05:01:22;;;;;;;8.13;5.45;;;3.30;92.40;;;;;;6135881;23;20014;-94
2021/04/15 05:04:23;;;;;;;4.55;3.45;;;3.30;92.40;;;;;;6135455;23;20014;-94
2021/04/15 05:10:39;;;;;;;5.15;3.55;;;3.40;92.20;;;;;;6160629;23;20041;-94
2021/04/15 05:17:03;;;;;;;8.90;3.85;;;3.50;92.00;;;;;;6160389;23;20056;-93
2021/04/15 05:19:49;;;;;;;7.10;4.10;;;3.60;92.00;;;;;;6135752;23;20005;-93
2021/04/15 05:22:56;;;;;;;9.55;3.83;;;3.60;91.90;;;;;;6135028;23;20005;-93
2021/04/15 05:25:45;;;;;;;5.38;3.45;;;3.60;91.80;;;;;;6131819;23;20005;-93
2021/04/15 05:28:50;;;;;;;10.40;4.07;;;3.70;91.70;;;;;;6135329;23;19997;-94
2021/04/15 05:31:56;;;;;;;6.25;3.47;;;3.70;91.50;;;;;;6119554;23;20357;-93
2021/04/15 05:34:58;;;;;;;8.10;3.58;;;3.80;91.50;;;;;;6117846;23;20260;-93
2021/04/15 05:48:02;;;;;;;9.25;3.60;;;4.00;90.90;;;;;;6160281;23;20305;-93
2021/04/15 05:50:35;;;;;;;10.55;3.20;;;4.10;90.70;;;;;;6135833;23;20012;-92
2021/04/15 05:53:27;;;;;;;6.07;3.20;;;4.10;90.40;;;;;;6137774;23;20005;-93
2021/04/15 05:56:25;;;;;;;3.78;2.03;;;4.30;90.30;;;;;;6137735;23;20085;-93
2021/04/15 05:59:35;;;;;;;4.85;2.78;;;4.30;90.20;;;;;;6138315;23;20348;-93
2021/04/15 06:02:28;;;;;;;4.50;3.45;;;4.40;90.10;;;;;;6137776;23;20001;-93
2021/04/15 06:05:48;;;;;;;6.28;3.58;;;4.50;90.00;;;;;;6137348;23;20009;-92
2021/04/15 06:08:53;;;;;;;7.50;2.90;;;4.70;89.90;;;;;;6160807;23;20021;-93
2021/04/15 06:12:23;;;;;;;2.58;2.30;;;4.70;88.30;;;;;;6135920;23;20021;-92
2021/04/15 07:30:20;;;;;;;3.70;2.10;;;6.70;78.80;;;;;;6072849;23;20026;-94
2021/04/15 09:28:33;;;;;;;2.78;1.00;;;9.10;62.80;;;;;;6071072;23;20065;-95
2021/04/15 10:05:55;;;;;;;;;;;;;;;;;;;;;
2021/04/15 10:35:43;;;;;;;1.25;0.68;;;10.20;52.50;;;;;;5942092;24;20096;-96
2021/04/15 10:39:27;;;;;;;1.83;0.82;;;10.20;52.80;;;;;;5999357;23;20102;-94
2021/04/15 11:02:35;;;;;;;0.82;0.57;;;10.40;47.90;;;;;;6106417;23;20071;-94
2021/04/15 14:14:43;;;;;;;1.13;0.73;;;9.40;54.60;;;;;;6163888;23;20036;-92
2021/04/15 14:17:17;;;;;;;1.23;1.13;;;9.40;54.60;;;;;;6138027;23;20009;-91
2021/04/15 14:19:43;;;;;;;0.50;0.50;;;9.40;55.10;;;;;;6138824;23;20009;-90
2021/04/15 14:22:18;;;;;;;0.88;0.88;;;9.50;55.10;;;;;;6138021;23;20231;-92
2021/04/15 14:24:53;;;;;;;3.40;0.65;;;9.40;57.20;;;;;;6138273;23;20001;-94
2021/04/15 14:27:24;;;;;;;3.42;0.95;;;9.40;56.80;;;;;;6138438;23;20028;-93
2021/04/15 14:33:26;;;;;;;2.60;0.82;;;9.30;57.90;;;;;;6046705;23;20046;-89
2021/04/15 14:39:48;;;;;;;1.08;0.95;;;9.20;57.20;;;;;;6123413;23;20012;-92
2021/04/15 14:42:50;;;;;;;1.45;0.60;;;9.10;57.70;;;;;;6136979;23;20257;-91
2021/04/15 14:45:39;;;;;;;0.70;0.70;;;9.00;58.30;;;;;;6134201;23;20148;-92
2021/04/15 14:51:38;;;;;;;1.77;0.60;;;8.80;60.50;;;;;;6047018;23;20013;-89
2021/04/15 14:54:50;;;;;;;2.83;0.73;;;8.70;61.50;;;;;;6136532;23;20005;-94
2021/04/15 14:57:20;;;;;;;2.78;0.70;;;8.60;62.60;;;;;;6134263;23;20005;-90
2021/04/15 15:03:18;;;;;;;3.85;1.52;;;8.70;64.20;;;;;;6132714;23;20055;-90
2021/04/15 15:05:45;;;;;;;3.03;0.73;;;8.70;62.40;;;;;;6137190;23;20016;-92
2021/04/15 15:08:14;;;;;;;4.95;0.85;;;8.50;64.60;;;;;;6137278;23;20032;-91
2021/04/15 15:10:40;;;;;;;1.15;1.05;;;8.20;67.80;;;;;;6136493;23;20006;-90
2021/04/15 15:13:07;;;;;;;1.33;1.23;;;8.20;68.50;;;;;;6135828;23;20013;-91
2021/04/15 15:15:33;;;;;;;0.98;0.80;;;8.30;70.00;;;;;;6135856;23;20393;-90
2021/04/15 15:18:01;;;;;;;3.90;0.80;;;8.30;67.60;;;;;;6134941;23;20005;-89
2021/04/15 15:20:46;;;;;;;2.95;1.50;;;8.30;67.00;;;;;;6160984;23;20005;-90
2021/04/15 15:23:21;;;;;;;2.22;1.02;;;8.30;67.90;;;;;;6135906;23;20037;-90
2021/04/15 15:25:49;;;;;;;0.82;0.60;;;8.20;69.50;;;;;;6136492;23;20025;-91
2021/04/15 15:28:27;;;;;;;0.68;0.68;;;8.10;68.70;;;;;;6136525;23;20274;-90
2021/04/15 15:30:55;;;;;;;1.00;0.70;;;8.00;69.10;;;;;;6136761;23;20016;-89
2021/04/15 15:33:28;;;;;;;3.38;0.90;;;7.90;70.80;;;;;;6161583;23;20005;-88
2021/04/15 15:35:56;;;;;;;2.25;1.80;;;7.90;70.60;;;;;;6134926;23;20010;-88
2021/04/15 15:38:41;;;;;;;0.80;0.60;;;7.80;70.50;;;;;;6135790;23;20004;-90
2021/04/15 15:41:25;;;;;;;5.38;3.10;;;7.70;70.80;;;;;;6161850;23;20249;-90
2021/04/15 15:44:05;;;;;;;136.80;54.53;;;7.80;70.30;;;;;;6135428;23;20029;-87
2021/04/15 15:46:46;;;;;;;83.05;33.85;;;7.80;70.90;;;;;;6134976;23;20001;-90
2021/04/15 15:49:23;;;;;;;52.97;25.27;;;7.90;71.60;;;;;;6135421;23;20355;-89
2021/04/15 15:51:53;;;;;;;21.33;12.20;;;7.90;71.40;;;;;;6135858;23;20013;-90
2021/04/15 15:54:40;;;;;;;4.38;3.75;;;8.00;71.30;;;;;;6135498;23;20002;-91
2021/04/15 15:57:21;;;;;;;2.38;1.45;;;7.90;72.10;;;;;;6135813;23;20013;-90
2021/04/15 15:59:54;;;;;;;2.03;1.10;;;7.80;73.30;;;;;;6136037;23;20002;-90
2021/04/15 16:02:23;;;;;;;3.05;2.17;;;7.70;74.60;;;;;;6135627;23;20361;-90
2021/04/15 16:05:04;;;;;;;4.68;1.90;;;7.70;74.50;;;;;;6161076;23;20322;-91
2021/04/15 16:07:41;;;;;;;0.93;0.77;;;7.50;75.20;;;;;;6161458;23;20032;-90
2021/04/15 16:10:10;;;;;;;1.58;1.20;;;7.40;76.50;;;;;;6134361;23;20241;-90
2021/04/15 16:12:44;;;;;;;1.63;1.20;;;7.30;77.10;;;;;;6133062;23;20429;-87
2021/04/15 16:15:19;;;;;;;1.27;0.90;;;7.30;77.80;;;;;;6133962;23;20066;-89
2021/04/15 16:17:56;;;;;;;1.40;0.90;;;7.30;78.50;;;;;;6158763;23;20087;-89
2021/04/15 16:20:22;;;;;;;2.90;1.02;;;7.10;78.80;;;;;;6133627;23;20116;-88
2021/04/15 16:22:48;;;;;;;1.33;0.80;;;7.20;80.50;;;;;;6133730;23;20018;-90
2021/04/15 16:25:14;;;;;;;1.30;1.05;;;7.20;79.60;;;;;;6159279;23;20016;-89
2021/04/15 16:27:40;;;;;;;0.57;0.57;;;7.20;78.90;;;;;;6158978;23;20006;-89
2021/04/15 16:30:09;;;;;;;1.25;0.90;;;7.20;80.00;;;;;;6134370;23;20005;-90
2021/04/15 16:32:35;;;;;;;2.00;1.13;;;7.10;79.70;;;;;;6134577;23;20005;-90
2021/04/15 16:35:00;;;;;;;1.30;1.02;;;7.10;80.40;;;;;;6134558;23;20080;-89
2021/04/15 16:37:28;;;;;;;2.97;1.10;;;7.00;79.90;;;;;;6134100;23;20005;-89
2021/04/15 16:39:54;;;;;;;0.88;0.75;;;7.00;80.00;;;;;;6159207;23;20413;-89
2021/04/15 16:42:27;;;;;;;1.25;0.80;;;7.00;80.50;;;;;;6133368;23;20009;-89
2021/04/15 16:44:53;;;;;;;2.05;0.93;;;7.00;80.80;;;;;;6134740;23;20013;-88
2021/04/15 16:47:19;;;;;;;1.40;1.20;;;7.00;81.70;;;;;;6133898;23;20088;-88
2021/04/15 16:49:44;;;;;;;6.97;1.33;;;7.00;81.10;;;;;;6134153;23;20155;-89
2021/04/15 16:52:10;;;;;;;1.17;1.08;;;7.00;81.00;;;;;;6134056;23;20088;-88
2021/04/15 16:54:35;;;;;;;2.03;1.83;;;7.10;80.90;;;;;;6132533;23;20002;-88
2021/04/15 16:57:03;;;;;;;4.07;1.05;;;7.00;80.50;;;;;;6134616;23;20061;-89
2021/04/15 16:59:29;;;;;;;1.75;1.13;;;7.00;79.80;;;;;;6160053;23;20001;-88
2021/04/15 17:01:55;;;;;;;2.50;0.80;;;6.90;80.40;;;;;;6159797;23;20025;-88
2021/04/15 17:04:26;;;;;;;1.00;0.82;;;6.90;80.60;;;;;;6105274;23;20026;-89
2021/04/15 17:06:53;;;;;;;4.82;0.80;;;6.90;80.80;;;;;;6130306;23;20033;-88
2021/04/15 17:09:21;;;;;;;1.02;0.93;;;6.90;80.90;;;;;;6105057;23;20010;-88
2021/04/15 17:11:47;;;;;;;1.25;0.95;;;6.90;81.10;;;;;;6104878;23;20013;-88
2021/04/15 17:14:13;;;;;;;1.40;1.02;;;6.80;80.90;;;;;;6101909;23;20002;-88
2021/04/15 17:16:40;;;;;;;1.60;0.90;;;6.80;81.00;;;;;;6103895;23;20298;-88
2021/04/15 17:19:07;;;;;;;2.25;1.00;;;6.90;80.50;;;;;;6103860;23;20120;-89
2021/04/15 17:21:33;;;;;;;3.85;1.15;;;6.80;80.80;;;;;;6129309;23;20069;-89
2021/04/15 17:23:59;;;;;;;3.20;1.33;;;6.80;81.10;;;;;;6104876;23;20009;-90
2021/04/15 17:26:28;;;;;;;1.73;0.88;;;6.80;81.00;;;;;;6104603;23;20033;-90
2021/04/15 17:28:56;;;;;;;1.00;0.75;;;6.80;80.80;;;;;;6103528;23;20002;-90
2021/04/15 17:31:22;;;;;;;1.55;1.00;;;6.70;80.90;;;;;;6104778;23;20089;-90
2021/04/15 17:33:47;;;;;;;1.65;0.88;;;6.80;81.20;;;;;;6105558;23;20574;-88
2021/04/15 17:36:13;;;;;;;3.53;1.20;;;6.80;80.70;;;;;;6131158;23;20002;-88
2021/04/15 17:38:40;;;;;;;1.10;1.00;;;6.70;81.10;;;;;;6130405;23;20013;-88
2021/04/15 17:41:06;;;;;;;1.10;0.85;;;6.60;81.40;;;;;;6105796;23;20009;-88
2021/04/15 17:43:34;;;;;;;2.83;1.48;;;6.60;81.50;;;;;;6129877;23;20368;-89
2021/04/15 17:46:00;;;;;;;2.00;1.10;;;6.60;82.20;;;;;;6105869;23;20021;-88
2021/04/15 17:48:26;;;;;;;2.05;1.17;;;6.50;82.60;;;;;;6106753;23;20235;-89
2021/04/15 17:50:59;;;;;;;1.10;1.00;;;6.50;82.50;;;;;;6106612;23;20089;-88
2021/04/15 17:53:29;;;;;;;1.20;0.88;;;6.50;83.10;;;;;;6106768;23;20010;-90
2021/04/15 17:55:56;;;;;;;2.10;1.15;;;6.50;83.60;;;;;;6107713;23;20002;-91
2021/04/15 17:58:23;;;;;;;1.67;1.20;;;6.40;83.90;;;;;;6132959;23;19998;-89
2021/04/15 18:00:50;;;;;;;1.55;1.42;;;6.30;84.30;;;;;;6133268;23;20005;-89
2021/04/15 18:03:16;;;;;;;2.42;1.30;;;6.20;84.90;;;;;;6132973;23;20009;-91
2021/04/15 18:05:45;;;;;;;2.80;1.35;;;6.20;85.00;;;;;;6107846;23;20073;-89
2021/04/15 18:08:11;;;;;;;1.92;1.50;;;6.20;84.60;;;;;;6131569;23;20076;-90
2021/04/15 18:10:45;;;;;;;1.58;1.33;;;6.20;84.20;;;;;;6105076;23;20006;-89
2021/04/15 18:13:11;;;;;;;1.50;1.33;;;6.20;84.80;;;;;;6107228;23;20009;-89
2021/04/15 18:15:37;;;;;;;2.00;1.50;;;6.10;84.80;;;;;;6131521;23;20002;-89
2021/04/15 18:18:04;;;;;;;1.83;1.08;;;6.10;85.00;;;;;;6131549;23;19998;-89
2021/04/15 18:20:33;;;;;;;6.05;1.85;;;6.20;84.80;;;;;;6106606;23;20085;-88
2021/04/15 18:22:58;;;;;;;1.60;1.38;;;6.20;84.20;;;;;;6106001;23;20014;-89
2021/04/15 18:25:26;;;;;;;1.95;1.10;;;6.20;84.70;;;;;;6132914;23;20013;-90
2021/04/15 18:27:54;;;;;;;2.03;1.35;;;6.30;83.90;;;;;;6107704;23;20085;-90
2021/04/15 18:30:25;;;;;;;1.70;1.60;;;6.20;84.40;;;;;;6106963;23;20598;-90
2021/04/15 18:32:51;;;;;;;2.42;1.83;;;6.20;84.30;;;;;;6107838;23;20018;-92
2021/04/15 18:35:28;;;;;;;2.03;1.80;;;6.20;84.40;;;;;;6107523;23;20009;-90
2021/04/15 18:37:55;;;;;;;2.17;1.40;;;6.10;84.90;;;;;;6107313;23;20084;-89
2021/04/15 18:40:25;;;;;;;3.38;1.45;;;6.10;85.70;;;;;;6107524;23;20002;-90
2021/04/15 18:42:50;;;;;;;2.20;1.60;;;6.10;86.10;;;;;;6133000;23;20052;-91
2021/04/15 18:45:16;;;;;;;2.13;1.45;;;6.20;87.40;;;;;;6107812;23;20037;-91
2021/04/15 18:47:44;;;;;;;1.90;1.40;;;6.10;87.70;;;;;;6107290;23;20016;-91
2021/04/15 18:50:13;;;;;;;2.30;1.65;;;6.20;87.10;;;;;;6108184;23;20010;-90
2021/04/15 18:52:46;;;;;;;3.67;1.85;;;6.20;87.50;;;;;;6108382;23;20013;-91
2021/04/15 18:55:12;;;;;;;5.13;1.90;;;6.10;87.90;;;;;;6108281;23;20001;-92
2021/04/15 18:57:37;;;;;;;4.10;1.92;;;6.00;88.50;;;;;;6107964;23;20002;-90
2021/04/15 19:00:06;;;;;;;2.92;2.00;;;5.90;88.50;;;;;;6108363;23;20080;-90
2021/04/15 19:02:34;;;;;;;1.98;1.83;;;5.80;89.20;;;;;;6133388;23;20048;-91
2021/04/15 19:05:07;;;;;;;5.45;2.80;;;5.80;90.00;;;;;;6104701;23;20009;-91
2021/04/15 19:07:32;;;;;;;;;;;5.90;90.20;;;;;;6106371;23;20021;-93
2021/04/15 19:09:58;;;;;;;2.22;1.58;;;5.80;90.00;;;;;;6108413;23;19905;-92
2021/04/15 19:12:25;;;;;;;2.65;1.65;;;5.70;90.20;;;;;;6108534;23;20006;-92
2021/04/15 19:14:51;;;;;;;2.45;1.80;;;5.60;90.50;;;;;;6109139;23;20334;-92
2021/04/15 19:17:18;;;;;;;2.95;2.05;;;5.60;90.30;;;;;;6108875;23;20013;-90
2021/04/15 19:19:43;;;;;;;1.75;1.52;;;5.70;90.20;;;;;;6109538;23;20010;-91
2021/04/15 19:22:09;;;;;;;4.30;2.10;;;5.70;90.10;;;;;;6108336;23;20345;-92
2021/04/15 19:24:35;;;;;;;2.08;1.55;;;5.80;90.40;;;;;;6109294;23;20017;-92
2021/04/15 19:27:00;;;;;;;2.10;1.67;;;5.80;90.10;;;;;;6109592;23;20417;-91
2021/04/15 19:29:28;;;;;;;2.03;1.52;;;5.80;90.20;;;;;;6108267;23;20654;-93
2021/04/15 19:31:54;;;;;;;3.72;1.42;;;5.80;90.20;;;;;;6108847;23;20070;-92
2021/04/15 19:34:20;;;;;;;1.90;1.50;;;5.90;90.20;;;;;;6108621;23;19998;-92
2021/04/15 19:36:45;;;;;;;2.05;1.10;;;5.90;90.30;;;;;;6109862;23;20028;-90
2021/04/15 19:39:11;;;;;;;2.33;1.20;;;5.90;90.20;;;;;;6108390;23;20021;-92
2021/04/15 19:41:38;;;;;;;2.28;1.50;;;5.90;90.10;;;;;;6109015;23;20036;-92
2021/04/15 19:44:04;;;;;;;1.73;1.25;;;5.90;89.80;;;;;;6108225;23;20005;-92
2021/04/15 19:46:31;;;;;;;1.65;1.00;;;5.90;89.90;;;;;;6108367;23;20040;-91
2021/04/15 19:48:57;;;;;;;1.60;1.48;;;6.00;89.20;;;;;;6107652;23;20009;-91
2021/04/15 19:51:23;;;;;;;1.55;1.30;;;6.10;87.60;;;;;;6132959;23;20021;-91
2021/04/15 19:53:49;;;;;;;2.90;1.35;;;6.10;87.90;;;;;;6107724;23;20002;-91
2021/04/15 19:56:19;;;;;;;1.98;1.40;;;6.10;88.10;;;;;;6106882;23;20005;-90
2021/04/15 19:58:46;;;;;;;1.60;1.45;;;6.20;87.40;;;;;;6107987;23;20014;-91
2021/04/15 20:01:13;;;;;;;1.95;1.27;;;6.20;86.60;;;;;;6106358;23;20282;-89
2021/04/15 20:03:42;;;;;;;3.58;1.38;;;6.20;86.50;;;;;;6106049;23;20357;-89
2021/04/15 20:06:10;;;;;;;1.02;0.93;;;6.20;86.70;;;;;;6104093;23;20046;-89
2021/04/15 20:08:43;;;;;;;1.63;1.08;;;6.20;85.10;;;;;;6105815;23;20283;-90
2021/04/15 20:11:20;;;;;;;1.70;1.55;;;6.20;83.60;;;;;;6105910;23;20010;-91
2021/04/15 20:13:46;;;;;;;1.98;1.25;;;6.20;83.80;;;;;;6107639;23;20010;-91
2021/04/15 20:16:14;;;;;;;1.67;1.23;;;6.20;83.60;;;;;;6107119;23;20125;-90
2021/04/15 20:18:40;;;;;;;1.90;1.23;;;6.30;82.60;;;;;;6107607;23;20054;-91
2021/04/15 20:21:08;;;;;;;2.10;1.17;;;6.30;82.40;;;;;;6109515;23;20562;-91
2021/04/15 20:23:40;;;;;;;1.33;1.00;;;6.40;80.70;;;;;;6108069;23;20246;-92
2021/04/15 20:26:06;;;;;;;1.13;0.90;;;6.50;79.20;;;;;;6107807;23;20073;-91
2021/04/15 20:28:32;;;;;;;1.27;1.05;;;6.50;78.00;;;;;;6107660;23;20001;-91
2021/04/15 20:31:10;;;;;;;1.85;1.00;;;6.50;79.10;;;;;;6106549;23;20002;-92
2021/04/15 20:34:05;;;;;;;1.25;1.15;;;6.50;77.90;;;;;;6106272;23;20334;-91
2021/04/15 20:36:30;;;;;;;1.10;1.00;;;6.50;74.20;;;;;;6106859;23;20006;-91
2021/04/15 20:38:56;;;;;;;1.52;0.90;;;6.50;73.70;;;;;;6106399;23;20467;-91
2021/04/15 20:41:27;;;;;;;1.98;0.70;;;6.40;73.50;;;;;;6107008;23;20006;-91
2021/04/15 20:43:52;;;;;;;1.63;0.80;;;6.40;72.50;;;;;;6107280;23;20002;-91
2021/04/15 20:46:23;;;;;;;3.00;1.58;;;6.30;72.90;;;;;;6106854;23;20013;-91
2021/04/15 20:48:49;;;;;;;1.23;0.80;;;6.30;73.30;;;;;;6106929;23;20017;-90
2021/04/15 20:51:17;;;;;;;1.00;0.75;;;6.40;72.80;;;;;;6106247;23;20006;-90
2021/04/15 20:53:44;;;;;;;1.70;1.10;;;6.30;73.00;;;;;;6106213;23;20002;-90
2021/04/15 20:56:09;;;;;;;1.23;0.70;;;6.20;73.30;;;;;;6107015;23;20065;-91
2021/04/15 20:58:38;;;;;;;1.23;1.13;;;6.20;74.10;;;;;;6106898;23;20006;-91
2021/04/15 21:01:04;;;;;;;0.73;0.60;;;6.20;74.20;;;;;;6107289;23;20416;-91
2021/04/15 21:03:29;;;;;;;4.85;0.80;;;6.10;75.30;;;;;;6108073;23;20009;-92
2021/04/15 21:05:55;;;;;;;1.85;1.08;;;6.00;75.60;;;;;;6106878;23;20005;-91
2021/04/15 21:08:23;;;;;;;0.73;0.73;;;5.90;76.10;;;;;;6106776;23;20048;-90
2021/04/15 21:10:49;;;;;;;1.90;1.30;;;6.00;76.50;;;;;;6106190;23;20006;-91
2021/04/15 21:13:16;;;;;;;1.23;0.90;;;5.90;76.90;;;;;;6106375;23;20017;-90
2021/04/15 21:15:43;;;;;;;2.15;1.23;;;5.80;77.40;;;;;;6106414;23;20033;-91
2021/04/15 21:18:09;;;;;;;2.63;0.80;;;5.80;77.70;;;;;;6106486;23;20069;-90
2021/04/15 21:20:39;;;;;;;2.25;0.80;;;5.60;78.40;;;;;;6133461;23;20395;-91
2021/04/15 21:23:06;;;;;;;0.80;0.80;;;5.60;78.90;;;;;;6108600;23;20009;-91
2021/04/15 21:25:38;;;;;;;1.40;1.17;;;5.60;78.10;;;;;;6108925;23;20014;-91
2021/04/15 21:28:05;;;;;;;0.80;0.70;;;5.60;77.90;;;;;;6108867;23;20009;-91
2021/04/15 21:30:32;;;;;;;1.23;0.93;;;5.60;78.10;;;;;;6107635;23;20244;-91
2021/04/15 21:32:58;;;;;;;1.13;1.02;;;5.60;78.60;;;;;;6133091;23;20085;-91
2021/04/15 21:35:25;;;;;;;1.35;1.05;;;5.50;78.80;;;;;;6108772;23;20081;-91
2021/04/15 21:37:52;;;;;;;2.45;0.98;;;5.50;78.90;;;;;;6108560;23;20092;-90
2021/04/15 21:40:24;;;;;;;2.08;1.17;;;5.50;79.20;;;;;;6108854;23;20010;-90
2021/04/15 21:42:49;;;;;;;1.58;1.00;;;5.50;80.40;;;;;;6108413;23;20343;-90
2021/04/15 21:45:16;;;;;;;4.65;1.08;;;5.50;79.80;;;;;;6108695;23;20069;-90
2021/04/15 21:47:42;;;;;;;1.92;0.70;;;5.50;80.10;;;;;;6107391;23;20013;-90
2021/04/15 21:50:17;;;;;;;2.08;0.80;;;5.60;80.20;;;;;;6108145;23;20053;-90
2021/04/15 21:52:48;;;;;;;1.77;0.90;;;5.50;80.40;;;;;;6108560;23;20342;-91
2021/04/15 21:55:13;;;;;;;0.95;0.65;;;5.50;81.30;;;;;;6108922;23;20057;-90
2021/04/15 21:57:39;;;;;;;1.52;0.70;;;5.40;81.60;;;;;;6108817;23;20009;-90
2021/04/15 22:00:33;;;;;;;2.80;0.95;;;5.30;81.80;;;;;;6108789;23;20017;-88
2021/04/15 22:03:02;;;;;;;0.75;0.75;;;5.30;81.80;;;;;;6108186;23;20005;-90
2021/04/15 22:05:29;;;;;;;1.00;0.90;;;5.30;81.70;;;;;;6107964;23;20009;-91
2021/04/15 22:07:58;;;;;;;0.95;0.75;;;5.30;83.00;;;;;;6108059;23;20032;-91
2021/04/15 22:10:34;;;;;;;1.70;0.80;;;5.20;83.10;;;;;;6108418;23;20314;-91
2021/04/15 22:13:05;;;;;;;1.60;0.75;;;5.20;83.60;;;;;;6108707;23;20252;-91
2021/04/15 22:15:31;;;;;;;4.07;0.90;;;5.00;85.30;;;;;;6108563;23;20014;-91
2021/04/15 22:18:02;;;;;;;6.45;1.10;;;4.90;85.90;;;;;;6108632;23;20017;-90
2021/04/15 22:20:41;;;;;;;1.08;0.95;;;4.90;86.40;;;;;;6107933;23;20033;-91
2021/04/15 22:23:17;;;;;;;1.00;0.90;;;4.80;86.80;;;;;;6108974;23;20006;-91
2021/04/15 22:25:43;;;;;;;5.97;1.00;;;4.80;87.30;;;;;;6108440;23;20620;-89
2021/04/15 22:28:16;;;;;;;0.88;0.70;;;4.80;87.20;;;;;;6108102;23;20021;-91
2021/04/15 22:30:44;;;;;;;;;;;4.70;87.70;;;;;;6109006;23;20002;-90
2021/04/15 22:33:23;;;;;;;0.82;0.70;;;4.70;88.30;;;;;;6108194;23;19916;-91
2021/04/15 22:35:48;;;;;;;0.90;0.80;;;4.60;88.70;;;;;;6108302;23;20080;-89
2021/04/15 22:38:14;;;;;;;1.23;1.13;;;4.60;88.10;;;;;;6108165;23;20002;-90
2021/04/15 22:40:42;;;;;;;1.30;0.90;;;4.60;88.30;;;;;;6108379;23;19998;-90
2021/04/15 22:43:10;;;;;;;0.82;0.82;;;4.60;87.50;;;;;;6108514;23;20009;-89
2021/04/15 22:45:38;;;;;;;0.85;0.85;;;4.60;87.90;;;;;;6108440;23;20014;-91
2021/04/15 22:48:08;;;;;;;1.25;0.93;;;4.60;87.40;;;;;;6111031;23;20319;-91
2021/04/15 22:50:43;;;;;;;3.08;1.00;;;4.70;88.00;;;;;;6109228;23;20274;-90
2021/04/15 22:53:15;;;;;;;1.15;0.60;;;4.70;86.90;;;;;;6108188;23;20010;-91
2021/04/15 22:55:41;;;;;;;0.77;0.77;;;4.70;87.20;;;;;;6108368;23;20006;-91
2021/04/15 22:58:16;;;;;;;0.93;0.73;;;4.70;86.40;;;;;;6107584;23;20356;-92
2021/04/15 23:00:48;;;;;;;2.05;0.70;;;4.90;86.10;;;;;;6108481;23;20081;-91
2021/04/15 23:03:17;;;;;;;0.70;0.70;;;4.90;85.60;;;;;;6107931;23;20022;-91
2021/04/15 23:05:53;;;;;;;0.82;0.63;;;4.90;85.50;;;;;;6108226;23;20005;-91
2021/04/15 23:08:25;;;;;;;1.10;1.00;;;4.90;85.40;;;;;;6108445;23;20459;-91
2021/04/15 23:10:56;;;;;;;1.45;0.68;;;4.90;85.00;;;;;;6107618;23;20013;-91
2021/04/15 23:13:31;;;;;;;7.78;1.17;;;5.00;84.70;;;;;;6107834;23;20010;-91
2021/04/15 23:16:14;;;;;;;0.95;0.70;;;4.90;84.90;;;;;;6108341;23;20002;-90
2021/04/15 23:22:04;;;;;;;1.73;0.90;;;4.90;85.50;;;;;;6133669;23;20081;-91
2021/04/15 23:24:38;;;;;;;0.47;0.47;;;4.80;84.50;;;;;;6108218;23;20010;-90
2021/04/15 23:27:10;;;;;;;0.98;0.80;;;4.80;84.80;;;;;;6108129;23;20034;-91
2021/04/15 23:29:38;;;;;;;0.70;0.70;;;4.80;84.00;;;;;;6109340;23;20050;-90
2021/04/15 23:32:09;;;;;;;0.85;0.77;;;4.70;84.30;;;;;;6107207;23;20005;-91
2021/04/15 23:35:05;;;;;;;0.77;0.77;;;4.70;85.30;;;;;;6108130;23;20017;-90
2021/04/15 23:37:42;;;;;;;0.80;0.80;;;4.70;85.00;;;;;;6102249;23;20040;-90
2021/04/15 23:40:13;;;;;;;2.13;1.17;;;4.70;85.00;;;;;;6107760;23;20036;-91
2021/04/15 23:42:49;;;;;;;1.13;0.80;;;4.60;85.90;;;;;;6107622;23;20010;-90
2021/04/15 23:45:38;;;;;;;1.13;0.82;;;4.60;85.90;;;;;;6104591;23;20014;-90
2021/04/15 23:48:21;;;;;;;0.85;0.77;;;4.50;86.50;;;;;;6108278;23;20257;-91
2021/04/15 23:50:51;;;;;;;1.13;1.02;;;4.50;88.00;;;;;;6106191;23;20018;-91
2021/04/15 23:53:27;;;;;;;2.17;0.85;;;4.50;87.70;;;;;;6107088;23;20042;-91
2021/04/15 23:55:57;;;;;;;1.10;0.90;;;4.50;88.00;;;;;;6107704;23;20001;-89
2021/04/15 23:58:26;;;;;;;1.73;1.05;;;4.50;88.10;;;;;;6107828;23;20065;-90
